sensor_id;sensor_type;location;lat;lon;timestamp;pressure;altitude;pressure_sealevel;temperature;humidity
60258;BME280;46115;44.484;11.314;2023-08-08T00:03:37;100252.50;;;17.55;51.63
60258;BME280;46115;44.484;11.314;2023-08-08T00:07:39;100258.13;;;17.41;51.52
60258;BME280;46115;44.484;11.314;2023-08-08T00:11:42;100257.41;;;17.39;52.13
60258;BME280;46115;44.484;11.314;2023-08-08T00:15:46;100258.13;;;17.30;52.91
60258;BME280;46115;44.484;11.314;2023-08-08T00:19:48;100258.00;;;16.87;53.45
60258;BME280;46115;44.484;11.314;2023-08-08T00:23:50;100252.91;;;17.17;53.85
60258;BME280;46115;44.484;11.314;2023-08-08T00:27:53;100256.44;;;17.18;54.43
60258;BME280;46115;44.484;11.314;2023-08-08T00:31:57;100254.75;;;17.17;53.36
60258;BME280;46115;44.484;11.314;2023-08-08T00:40:20;100260.09;;;17.17;52.96
60258;BME280;46115;44.484;11.314;2023-08-08T00:44:23;100266.63;;;17.12;53.30
60258;BME280;46115;44.484;11.314;2023-08-08T00:48:27;100257.91;;;17.10;52.09
60258;BME280;46115;44.484;11.314;2023-08-08T00:52:29;100249.78;;;17.12;51.24
60258;BME280;46115;44.484;11.314;2023-08-08T00:56:32;100270.16;;;17.02;52.62
60258;BME280;46115;44.484;11.314;2023-08-08T01:00:35;100261.41;;;17.00;53.12
60258;BME280;46115;44.484;11.314;2023-08-08T01:04:39;100262.97;;;17.25;52.34
60258;BME280;46115;44.484;11.314;2023-08-08T01:08:46;100267.47;;;16.91;52.98
60258;BME280;46115;44.484;11.314;2023-08-08T01:12:53;100268.44;;;16.78;52.18
60258;BME280;46115;44.484;11.314;2023-08-08T01:16:58;100268.94;;;16.83;52.69
60258;BME280;46115;44.484;11.314;2023-08-08T01:21:03;100272.81;;;16.79;52.42
60258;BME280;46115;44.484;11.314;2023-08-08T01:25:09;100270.50;;;16.75;52.48
60258;BME280;46115;44.484;11.314;2023-08-08T01:29:12;100267.09;;;16.73;52.75
60258;BME280;46115;44.484;11.314;2023-08-08T01:33:15;100263.50;;;16.50;53.18
60258;BME280;46115;44.484;11.314;2023-08-08T01:37:20;100264.09;;;16.42;53.74
60258;BME280;46115;44.484;11.314;2023-08-08T01:41:26;100266.63;;;16.68;52.54
60258;BME280;46115;44.484;11.314;2023-08-08T01:45:29;100260.69;;;16.40;53.31
60258;BME280;46115;44.484;11.314;2023-08-08T01:49:31;100271.34;;;16.75;53.62
60258;BME280;46115;44.484;11.314;2023-08-08T01:53:34;100270.97;;;16.69;51.93
60258;BME280;46115;44.484;11.314;2023-08-08T01:57:37;100265.81;;;16.54;53.22
60258;BME280;46115;44.484;11.314;2023-08-08T02:01:40;100264.84;;;16.56;53.55
60258;BME280;46115;44.484;11.314;2023-08-08T02:05:42;100257.53;;;16.35;54.11
60258;BME280;46115;44.484;11.314;2023-08-08T02:09:45;100263.25;;;16.42;53.82
60258;BME280;46115;44.484;11.314;2023-08-08T02:13:49;100262.16;;;16.44;54.28
60258;BME280;46115;44.484;11.314;2023-08-08T02:17:52;100282.31;;;16.25;54.54
60258;BME280;46115;44.484;11.314;2023-08-08T02:21:54;100281.81;;;16.54;54.13
60258;BME280;46115;44.484;11.314;2023-08-08T02:25:57;100274.44;;;16.23;54.25
60258;BME280;46115;44.484;11.314;2023-08-08T02:30:01;100272.63;;;16.23;55.39
60258;BME280;46115;44.484;11.314;2023-08-08T02:34:03;100281.66;;;16.34;54.54
60258;BME280;46115;44.484;11.314;2023-08-08T02:38:06;100284.38;;;16.21;54.49
60258;BME280;46115;44.484;11.314;2023-08-08T02:42:08;100277.16;;;16.34;53.74
60258;BME280;46115;44.484;11.314;2023-08-08T02:46:12;100279.72;;;16.36;52.96
60258;BME280;46115;44.484;11.314;2023-08-08T02:50:15;100267.72;;;16.06;54.25
60258;BME280;46115;44.484;11.314;2023-08-08T02:54:18;100286.44;;;16.17;54.96
60258;BME280;46115;44.484;11.314;2023-08-08T02:58:21;100282.38;;;16.01;54.77
60258;BME280;46115;44.484;11.314;2023-08-08T03:02:25;100288.41;;;16.27;54.43
60258;BME280;46115;44.484;11.314;2023-08-08T03:06:28;100295.34;;;15.81;55.66
60258;BME280;46115;44.484;11.314;2023-08-08T03:10:31;100286.34;;;15.58;56.43
60258;BME280;46115;44.484;11.314;2023-08-08T03:14:34;100287.09;;;15.60;56.84
60258;BME280;46115;44.484;11.314;2023-08-08T03:18:40;100293.19;;;15.86;55.87
60258;BME280;46115;44.484;11.314;2023-08-08T03:22:42;100298.03;;;15.56;56.24
60258;BME280;46115;44.484;11.314;2023-08-08T03:26:46;100289.56;;;16.11;55.42
60258;BME280;46115;44.484;11.314;2023-08-08T03:30:50;100293.28;;;15.61;55.83
60258;BME280;46115;44.484;11.314;2023-08-08T03:34:54;100281.31;;;15.54;56.45
60258;BME280;46115;44.484;11.314;2023-08-08T03:38:57;100283.09;;;15.29;56.85
60258;BME280;46115;44.484;11.314;2023-08-08T03:42:59;100288.00;;;15.36;56.83
60258;BME280;46115;44.484;11.314;2023-08-08T03:47:02;100290.66;;;15.23;57.00
60258;BME280;46115;44.484;11.314;2023-08-08T03:51:06;100284.66;;;15.45;55.93
60258;BME280;46115;44.484;11.314;2023-08-08T03:55:09;100292.75;;;15.43;56.35
60258;BME280;46115;44.484;11.314;2023-08-08T03:59:12;100290.09;;;15.43;55.78
60258;BME280;46115;44.484;11.314;2023-08-08T04:03:16;100287.78;;;15.39;56.29
60258;BME280;46115;44.484;11.314;2023-08-08T04:07:20;100301.09;;;15.26;57.42
60258;BME280;46115;44.484;11.314;2023-08-08T04:11:23;100294.31;;;15.09;58.12
60258;BME280;46115;44.484;11.314;2023-08-08T04:15:26;100289.31;;;15.05;57.93
60258;BME280;46115;44.484;11.314;2023-08-08T04:19:29;100286.91;;;15.25;57.73
60258;BME280;46115;44.484;11.314;2023-08-08T04:23:32;100286.50;;;15.19;58.11
60258;BME280;46115;44.484;11.314;2023-08-08T04:27:35;100293.75;;;15.29;55.99
60258;BME280;46115;44.484;11.314;2023-08-08T04:31:37;100299.66;;;15.58;55.15
60258;BME280;46115;44.484;11.314;2023-08-08T04:35:40;100299.84;;;15.55;54.54
60258;BME280;46115;44.484;11.314;2023-08-08T04:39:44;100299.47;;;15.49;54.48
60258;BME280;46115;44.484;11.314;2023-08-08T04:43:46;100304.03;;;15.59;55.06
60258;BME280;46115;44.484;11.314;2023-08-08T04:47:48;100306.00;;;15.81;54.67
60258;BME280;46115;44.484;11.314;2023-08-08T04:51:51;100303.69;;;15.77;54.81
60258;BME280;46115;44.484;11.314;2023-08-08T04:55:55;100301.53;;;16.06;54.04
60258;BME280;46115;44.484;11.314;2023-08-08T04:59:57;100300.56;;;16.07;54.68
60258;BME280;46115;44.484;11.314;2023-08-08T05:04:02;100297.69;;;16.45;53.28
60258;BME280;46115;44.484;11.314;2023-08-08T05:08:05;100295.28;;;16.64;52.71
60258;BME280;46115;44.484;11.314;2023-08-08T05:12:09;100303.50;;;16.85;52.34
60258;BME280;46115;44.484;11.314;2023-08-08T05:16:11;100316.91;;;17.19;51.18
60258;BME280;46115;44.484;11.314;2023-08-08T05:20:14;100324.63;;;16.88;51.88
60258;BME280;46115;44.484;11.314;2023-08-08T05:24:17;100331.09;;;17.08;51.33
60258;BME280;46115;44.484;11.314;2023-08-08T05:28:21;100321.28;;;17.42;51.01
60258;BME280;46115;44.484;11.314;2023-08-08T05:32:23;100344.88;;;17.70;51.56
60258;BME280;46115;44.484;11.314;2023-08-08T05:36:26;100340.34;;;17.49;51.59
60258;BME280;46115;44.484;11.314;2023-08-08T05:40:28;100345.19;;;17.66;50.96
60258;BME280;46115;44.484;11.314;2023-08-08T05:44:32;100342.38;;;17.90;51.18
60258;BME280;46115;44.484;11.314;2023-08-08T05:48:35;100334.91;;;17.72;50.71
60258;BME280;46115;44.484;11.314;2023-08-08T05:52:37;100340.91;;;18.08;49.83
60258;BME280;46115;44.484;11.314;2023-08-08T05:56:40;100341.63;;;18.42;49.05
60258;BME280;46115;44.484;11.314;2023-08-08T06:00:44;100341.97;;;18.49;49.83
60258;BME280;46115;44.484;11.314;2023-08-08T06:04:46;100341.72;;;18.73;49.19
60258;BME280;46115;44.484;11.314;2023-08-08T06:08:49;100351.72;;;18.91;48.53
60258;BME280;46115;44.484;11.314;2023-08-08T06:12:51;100341.41;;;18.87;48.29
60258;BME280;46115;44.484;11.314;2023-08-08T06:16:55;100358.75;;;19.65;46.76
60258;BME280;46115;44.484;11.314;2023-08-08T06:20:58;100366.09;;;19.62;46.34
60258;BME280;46115;44.484;11.314;2023-08-08T06:25:00;100375.41;;;20.08;45.74
60258;BME280;46115;44.484;11.314;2023-08-08T06:29:03;100375.78;;;19.94;45.32
60258;BME280;46115;44.484;11.314;2023-08-08T06:33:07;100346.50;;;20.60;44.93
60258;BME280;46115;44.484;11.314;2023-08-08T06:37:09;100376.63;;;20.64;43.99
60258;BME280;46115;44.484;11.314;2023-08-08T06:41:12;100398.88;;;21.41;43.00
60258;BME280;46115;44.484;11.314;2023-08-08T06:45:15;100400.22;;;21.92;42.37
60258;BME280;46115;44.484;11.314;2023-08-08T06:49:19;100404.06;;;22.17;40.06
60258;BME280;46115;44.484;11.314;2023-08-08T06:53:23;100409.75;;;22.95;38.71
60258;BME280;46115;44.484;11.314;2023-08-08T06:57:25;100414.63;;;22.91;38.13
60258;BME280;46115;44.484;11.314;2023-08-08T07:01:28;100414.53;;;22.83;39.31
60258;BME280;46115;44.484;11.314;2023-08-08T07:05:32;100416.94;;;23.30;38.03
60258;BME280;46115;44.484;11.314;2023-08-08T07:09:34;100417.16;;;23.62;37.84
60258;BME280;46115;44.484;11.314;2023-08-08T07:13:38;100421.41;;;22.50;39.34
60258;BME280;46115;44.484;11.314;2023-08-08T07:17:40;100424.09;;;22.95;40.23
60258;BME280;46115;44.484;11.314;2023-08-08T07:21:44;100406.44;;;23.53;36.22
60258;BME280;46115;44.484;11.314;2023-08-08T07:25:47;100432.06;;;24.83;36.76
60258;BME280;46115;44.484;11.314;2023-08-08T07:29:50;100438.84;;;25.69;33.32
60258;BME280;46115;44.484;11.314;2023-08-08T07:33:53;100441.44;;;25.93;32.96
60258;BME280;46115;44.484;11.314;2023-08-08T07:37:57;100443.00;;;26.27;31.69
60258;BME280;46115;44.484;11.314;2023-08-08T07:41:59;100440.47;;;27.10;29.25
60258;BME280;46115;44.484;11.314;2023-08-08T07:46:02;100439.34;;;26.96;29.56
60258;BME280;46115;44.484;11.314;2023-08-08T07:50:06;100441.13;;;27.64;30.59
60258;BME280;46115;44.484;11.314;2023-08-08T07:54:10;100437.84;;;27.54;29.29
60258;BME280;46115;44.484;11.314;2023-08-08T07:58:13;100428.25;;;27.29;29.31
60258;BME280;46115;44.484;11.314;2023-08-08T08:02:16;100433.41;;;27.01;28.36
60258;BME280;46115;44.484;11.314;2023-08-08T08:06:18;100423.25;;;26.95;28.36
60258;BME280;46115;44.484;11.314;2023-08-08T08:10:22;100429.88;;;28.63;27.81
60258;BME280;46115;44.484;11.314;2023-08-08T08:14:25;100441.44;;;29.91;25.32
60258;BME280;46115;44.484;11.314;2023-08-08T08:18:28;100438.22;;;30.16;24.96
60258;BME280;46115;44.484;11.314;2023-08-08T08:22:30;100432.34;;;29.77;24.72
60258;BME280;46115;44.484;11.314;2023-08-08T08:26:34;100436.66;;;29.65;25.23
60258;BME280;46115;44.484;11.314;2023-08-08T08:30:37;100432.34;;;29.77;26.46
60258;BME280;46115;44.484;11.314;2023-08-08T08:34:40;100429.88;;;30.98;24.67
60258;BME280;46115;44.484;11.314;2023-08-08T08:38:43;100437.03;;;30.25;24.66
60258;BME280;46115;44.484;11.314;2023-08-08T08:42:47;100442.09;;;30.41;25.06
60258;BME280;46115;44.484;11.314;2023-08-08T08:46:51;100438.06;;;30.98;25.38
60258;BME280;46115;44.484;11.314;2023-08-08T08:50:54;100439.53;;;31.73;23.47
60258;BME280;46115;44.484;11.314;2023-08-08T08:54:57;100433.03;;;31.21;22.90
60258;BME280;46115;44.484;11.314;2023-08-08T08:59:01;100426.31;;;30.91;23.56
60258;BME280;46115;44.484;11.314;2023-08-08T09:03:04;100431.94;;;30.83;23.72
60258;BME280;46115;44.484;11.314;2023-08-08T09:07:07;100436.59;;;31.61;22.64
60258;BME280;46115;44.484;11.314;2023-08-08T09:11:10;100437.47;;;31.29;22.60
60258;BME280;46115;44.484;11.314;2023-08-08T09:15:14;100435.31;;;31.77;24.75
60258;BME280;46115;44.484;11.314;2023-08-08T09:19:17;100427.56;;;31.01;23.27
60258;BME280;46115;44.484;11.314;2023-08-08T09:23:22;100438.72;;;31.26;23.61
60258;BME280;46115;44.484;11.314;2023-08-08T09:27:25;100441.63;;;30.24;23.07
60258;BME280;46115;44.484;11.314;2023-08-08T09:31:34;100431.13;;;30.21;24.70
60258;BME280;46115;44.484;11.314;2023-08-08T09:35:38;100432.56;;;30.17;24.59
60258;BME280;46115;44.484;11.314;2023-08-08T09:39:40;100419.75;;;30.79;24.85
60258;BME280;46115;44.484;11.314;2023-08-08T09:43:43;100412.69;;;30.23;24.59
60258;BME280;46115;44.484;11.314;2023-08-08T09:47:49;100409.56;;;29.85;24.99
60258;BME280;46115;44.484;11.314;2023-08-08T09:51:51;100408.28;;;30.22;25.48
60258;BME280;46115;44.484;11.314;2023-08-08T09:55:54;100396.84;;;29.36;25.13
60258;BME280;46115;44.484;11.314;2023-08-08T09:59:57;100378.84;;;30.04;26.08
60258;BME280;46115;44.484;11.314;2023-08-08T10:04:03;100395.41;;;29.68;25.86
60258;BME280;46115;44.484;11.314;2023-08-08T10:08:05;100390.66;;;28.93;26.39
60258;BME280;46115;44.484;11.314;2023-08-08T10:12:08;100387.56;;;28.39;26.53
60258;BME280;46115;44.484;11.314;2023-08-08T10:16:11;100374.22;;;28.44;26.42
60258;BME280;46115;44.484;11.314;2023-08-08T10:20:18;100373.59;;;27.91;26.76
60258;BME280;46115;44.484;11.314;2023-08-08T10:24:22;100370.34;;;28.74;26.47
60258;BME280;46115;44.484;11.314;2023-08-08T10:28:25;100372.25;;;28.95;27.02
60258;BME280;46115;44.484;11.314;2023-08-08T10:32:28;100354.31;;;27.71;28.64
60258;BME280;46115;44.484;11.314;2023-08-08T10:36:51;100380.88;;;28.05;27.44
60258;BME280;46115;44.484;11.314;2023-08-08T10:40:56;100369.91;;;27.77;28.40
60258;BME280;46115;44.484;11.314;2023-08-08T10:45:00;100362.69;;;28.20;28.76
60258;BME280;46115;44.484;11.314;2023-08-08T10:49:05;100361.63;;;28.36;28.25
60258;BME280;46115;44.484;11.314;2023-08-08T10:53:09;100356.63;;;28.40;28.45
60258;BME280;46115;44.484;11.314;2023-08-08T10:57:15;100351.22;;;27.89;27.67
60258;BME280;46115;44.484;11.314;2023-08-08T11:01:24;100352.78;;;28.49;27.36
60258;BME280;46115;44.484;11.314;2023-08-08T11:05:28;100357.03;;;28.37;28.89
60258;BME280;46115;44.484;11.314;2023-08-08T11:09:34;100353.09;;;28.61;29.60
60258;BME280;46115;44.484;11.314;2023-08-08T11:13:36;100352.69;;;28.64;27.89
60258;BME280;46115;44.484;11.314;2023-08-08T11:17:39;100349.78;;;28.65;28.99
60258;BME280;46115;44.484;11.314;2023-08-08T11:21:42;100340.13;;;28.63;28.90
60258;BME280;46115;44.484;11.314;2023-08-08T11:25:47;100310.75;;;28.51;29.13
60258;BME280;46115;44.484;11.314;2023-08-08T11:29:51;100331.91;;;27.99;27.04
60258;BME280;46115;44.484;11.314;2023-08-08T11:33:54;100328.13;;;27.63;27.77
60258;BME280;46115;44.484;11.314;2023-08-08T11:37:57;100321.22;;;27.97;26.81
60258;BME280;46115;44.484;11.314;2023-08-08T11:42:02;100317.25;;;27.63;26.76
60258;BME280;46115;44.484;11.314;2023-08-08T11:46:08;100306.94;;;28.10;25.81
60258;BME280;46115;44.484;11.314;2023-08-08T11:50:12;100304.47;;;28.30;25.03
60258;BME280;46115;44.484;11.314;2023-08-08T11:54:14;100291.78;;;28.37;25.84
60258;BME280;46115;44.484;11.314;2023-08-08T11:58:18;100286.38;;;27.50;24.98
60258;BME280;46115;44.484;11.314;2023-08-08T12:02:22;100281.97;;;28.00;25.93
60258;BME280;46115;44.484;11.314;2023-08-08T12:06:28;100284.50;;;28.22;26.68
60258;BME280;46115;44.484;11.314;2023-08-08T12:10:31;100289.78;;;27.88;26.08
60258;BME280;46115;44.484;11.314;2023-08-08T12:14:37;100277.47;;;27.56;25.57
60258;BME280;46115;44.484;11.314;2023-08-08T12:18:40;100278.63;;;28.19;26.16
60258;BME280;46115;44.484;11.314;2023-08-08T12:22:43;100278.47;;;27.84;25.93
60258;BME280;46115;44.484;11.314;2023-08-08T12:26:46;100270.78;;;28.09;26.09
60258;BME280;46115;44.484;11.314;2023-08-08T12:30:50;100258.31;;;28.15;25.70
60258;BME280;46115;44.484;11.314;2023-08-08T12:34:53;100263.56;;;28.16;26.48
60258;BME280;46115;44.484;11.314;2023-08-08T12:38:55;100260.63;;;28.61;26.55
60258;BME280;46115;44.484;11.314;2023-08-08T12:42:58;100251.00;;;28.15;25.33
60258;BME280;46115;44.484;11.314;2023-08-08T12:47:02;100255.72;;;28.49;25.07
60258;BME280;46115;44.484;11.314;2023-08-08T12:51:04;100247.84;;;28.33;25.06
60258;BME280;46115;44.484;11.314;2023-08-08T12:55:08;100247.50;;;28.43;25.68
60258;BME280;46115;44.484;11.314;2023-08-08T12:59:12;100247.63;;;28.35;24.25
60258;BME280;46115;44.484;11.314;2023-08-08T13:03:16;100242.25;;;27.99;24.48
60258;BME280;46115;44.484;11.314;2023-08-08T13:07:19;100248.41;;;28.50;25.72
60258;BME280;46115;44.484;11.314;2023-08-08T13:11:21;100240.84;;;28.45;25.88
60258;BME280;46115;44.484;11.314;2023-08-08T13:15:24;100228.94;;;28.46;25.42
60258;BME280;46115;44.484;11.314;2023-08-08T13:19:28;100238.19;;;28.52;24.26
60258;BME280;46115;44.484;11.314;2023-08-08T13:23:30;100232.63;;;28.67;24.71
60258;BME280;46115;44.484;11.314;2023-08-08T13:27:33;100227.44;;;28.72;24.89
60258;BME280;46115;44.484;11.314;2023-08-08T13:31:35;100217.97;;;28.40;23.76
60258;BME280;46115;44.484;11.314;2023-08-08T13:35:39;100216.53;;;28.44;24.88
60258;BME280;46115;44.484;11.314;2023-08-08T13:39:41;100213.75;;;28.58;24.34
60258;BME280;46115;44.484;11.314;2023-08-08T13:43:44;100210.03;;;28.66;23.93
60258;BME280;46115;44.484;11.314;2023-08-08T13:47:46;100215.22;;;28.61;23.67
60258;BME280;46115;44.484;11.314;2023-08-08T13:51:50;100201.38;;;28.28;23.48
60258;BME280;46115;44.484;11.314;2023-08-08T13:55:53;100202.72;;;28.67;24.05
60258;BME280;46115;44.484;11.314;2023-08-08T13:59:55;100200.75;;;28.82;23.30
60258;BME280;46115;44.484;11.314;2023-08-08T14:03:57;100201.56;;;28.26;22.88
60258;BME280;46115;44.484;11.314;2023-08-08T14:08:02;100189.38;;;28.44;23.46
60258;BME280;46115;44.484;11.314;2023-08-08T14:12:05;100184.06;;;28.64;24.04
60258;BME280;46115;44.484;11.314;2023-08-08T14:16:07;100192.31;;;28.77;24.21
60258;BME280;46115;44.484;11.314;2023-08-08T14:20:10;100186.38;;;28.95;24.28
60258;BME280;46115;44.484;11.314;2023-08-08T14:24:14;100187.41;;;28.87;25.84
60258;BME280;46115;44.484;11.314;2023-08-08T14:28:17;100170.88;;;28.88;24.25
60258;BME280;46115;44.484;11.314;2023-08-08T14:32:19;100172.91;;;29.14;24.52
60258;BME280;46115;44.484;11.314;2023-08-08T14:36:22;100162.72;;;28.88;23.50
60258;BME280;46115;44.484;11.314;2023-08-08T14:40:25;100170.13;;;28.73;23.84
60258;BME280;46115;44.484;11.314;2023-08-08T14:44:28;100171.59;;;28.76;23.63
60258;BME280;46115;44.484;11.314;2023-08-08T14:48:31;100174.44;;;28.61;23.05
60258;BME280;46115;44.484;11.314;2023-08-08T14:52:33;100162.84;;;28.80;23.03
60258;BME280;46115;44.484;11.314;2023-08-08T14:56:37;100166.69;;;28.86;22.52
60258;BME280;46115;44.484;11.314;2023-08-08T15:00:40;100166.69;;;28.86;23.40
60258;BME280;46115;44.484;11.314;2023-08-08T15:04:42;100175.72;;;28.93;24.25
60258;BME280;46115;44.484;11.314;2023-08-08T15:08:45;100169.19;;;28.87;23.45
60258;BME280;46115;44.484;11.314;2023-08-08T15:12:49;100169.06;;;28.74;23.64
60258;BME280;46115;44.484;11.314;2023-08-08T15:16:52;100173.13;;;28.50;23.32
60258;BME280;46115;44.484;11.314;2023-08-08T15:20:55;100170.66;;;28.55;23.93
60258;BME280;46115;44.484;11.314;2023-08-08T15:24:58;100177.41;;;28.94;27.27
60258;BME280;46115;44.484;11.314;2023-08-08T15:29:01;100177.81;;;28.63;24.89
60258;BME280;46115;44.484;11.314;2023-08-08T15:33:04;100177.22;;;28.74;23.56
60258;BME280;46115;44.484;11.314;2023-08-08T15:37:06;100176.16;;;28.69;23.22
60258;BME280;46115;44.484;11.314;2023-08-08T15:41:10;100172.31;;;28.84;23.72
60258;BME280;46115;44.484;11.314;2023-08-08T15:45:14;100173.63;;;28.67;28.24
60258;BME280;46115;44.484;11.314;2023-08-08T15:49:16;100168.81;;;28.97;25.12
60258;BME280;46115;44.484;11.314;2023-08-08T15:53:19;100163.69;;;28.81;23.76
60258;BME280;46115;44.484;11.314;2023-08-08T15:57:23;100175.34;;;28.75;23.65
60258;BME280;46115;44.484;11.314;2023-08-08T16:01:27;100167.28;;;28.53;24.04
60258;BME280;46115;44.484;11.314;2023-08-08T16:05:30;100150.56;;;28.56;23.37
60258;BME280;46115;44.484;11.314;2023-08-08T16:09:32;100145.09;;;28.50;24.31
60258;BME280;46115;44.484;11.314;2023-08-08T16:13:35;100140.63;;;28.77;23.97
60258;BME280;46115;44.484;11.314;2023-08-08T16:17:39;100138.69;;;28.64;24.00
60258;BME280;46115;44.484;11.314;2023-08-08T16:21:41;100151.41;;;28.29;23.59
60258;BME280;46115;44.484;11.314;2023-08-08T16:25:44;100149.81;;;28.13;23.71
60258;BME280;46115;44.484;11.314;2023-08-08T16:29:46;100146.94;;;28.21;24.56
60258;BME280;46115;44.484;11.314;2023-08-08T16:33:50;100138.47;;;28.31;23.64
60258;BME280;46115;44.484;11.314;2023-08-08T16:37:52;100138.06;;;28.34;23.26
60258;BME280;46115;44.484;11.314;2023-08-08T16:41:55;100137.91;;;28.14;23.56
60258;BME280;46115;44.484;11.314;2023-08-08T16:45:59;100137.66;;;28.37;24.01
60258;BME280;46115;44.484;11.314;2023-08-08T16:50:04;100139.00;;;28.20;23.72
60258;BME280;46115;44.484;11.314;2023-08-08T16:54:07;100152.28;;;28.36;23.47
60258;BME280;46115;44.484;11.314;2023-08-08T16:58:09;100159.66;;;28.14;23.21
60258;BME280;46115;44.484;11.314;2023-08-08T17:02:12;100159.44;;;28.16;24.18
60258;BME280;46115;44.484;11.314;2023-08-08T17:06:16;100160.44;;;28.36;23.88
60258;BME280;46115;44.484;11.314;2023-08-08T17:10:18;100165.19;;;28.06;23.87
60258;BME280;46115;44.484;11.314;2023-08-08T17:14:21;100168.63;;;27.72;23.31
60258;BME280;46115;44.484;11.314;2023-08-08T17:18:23;100173.88;;;27.74;23.17
60258;BME280;46115;44.484;11.314;2023-08-08T17:22:27;100171.03;;;27.82;23.19
60258;BME280;46115;44.484;11.314;2023-08-08T17:26:29;100156.63;;;27.81;23.25
60258;BME280;46115;44.484;11.314;2023-08-08T17:30:32;100151.25;;;27.88;24.11
60258;BME280;46115;44.484;11.314;2023-08-08T17:34:34;100154.34;;;27.63;24.26
60258;BME280;46115;44.484;11.314;2023-08-08T17:38:38;100139.56;;;27.51;24.37
60258;BME280;46115;44.484;11.314;2023-08-08T17:42:41;100142.28;;;27.51;26.49
60258;BME280;46115;44.484;11.314;2023-08-08T17:46:43;100144.16;;;27.15;34.57
60258;BME280;46115;44.484;11.314;2023-08-08T17:50:46;100146.16;;;27.06;36.08
60258;BME280;46115;44.484;11.314;2023-08-08T17:54:50;100143.16;;;27.01;37.22
60258;BME280;46115;44.484;11.314;2023-08-08T17:58:52;100142.66;;;26.97;38.38
60258;BME280;46115;44.484;11.314;2023-08-08T18:02:55;100143.44;;;26.47;40.66
60258;BME280;46115;44.484;11.314;2023-08-08T18:06:58;100145.19;;;26.84;39.83
60258;BME280;46115;44.484;11.314;2023-08-08T18:11:02;100151.66;;;26.16;41.34
60258;BME280;46115;44.484;11.314;2023-08-08T18:15:06;100150.53;;;26.25;41.04
60258;BME280;46115;44.484;11.314;2023-08-08T18:19:08;100153.53;;;26.16;40.97
60258;BME280;46115;44.484;11.314;2023-08-08T18:23:11;100148.69;;;26.26;41.25
60258;BME280;46115;44.484;11.314;2023-08-08T18:27:15;100144.81;;;26.05;41.93
60258;BME280;46115;44.484;11.314;2023-08-08T18:31:17;100150.09;;;25.99;42.45
60258;BME280;46115;44.484;11.314;2023-08-08T18:35:20;100149.91;;;26.00;42.50
60258;BME280;46115;44.484;11.314;2023-08-08T18:39:22;100156.88;;;26.40;42.24
60258;BME280;46115;44.484;11.314;2023-08-08T18:43:26;100153.69;;;25.76;43.75
60258;BME280;46115;44.484;11.314;2023-08-08T18:47:29;100159.09;;;25.45;45.10
60258;BME280;46115;44.484;11.314;2023-08-08T18:51:31;100151.47;;;25.80;44.26
60258;BME280;46115;44.484;11.314;2023-08-08T18:55:34;100145.94;;;25.73;44.75
60258;BME280;46115;44.484;11.314;2023-08-08T18:59:38;100146.28;;;25.70;45.65
60258;BME280;46115;44.484;11.314;2023-08-08T19:03:41;100156.63;;;25.05;47.34
60258;BME280;46115;44.484;11.314;2023-08-08T19:07:43;100157.84;;;25.33;46.40
60258;BME280;46115;44.484;11.314;2023-08-08T19:11:46;100166.16;;;25.24;46.57
60258;BME280;46115;44.484;11.314;2023-08-08T19:15:49;100175.69;;;25.42;46.70
60258;BME280;46115;44.484;11.314;2023-08-08T22:06:09;100228.88;;;20.83;47.58
60258;BME280;46115;44.484;11.314;2023-08-08T22:10:12;100232.25;;;20.85;47.12
60258;BME280;46115;44.484;11.314;2023-08-08T22:14:15;100227.19;;;21.09;46.57
60258;BME280;46115;44.484;11.314;2023-08-08T22:18:18;100224.50;;;21.09;46.23
60258;BME280;46115;44.484;11.314;2023-08-08T22:22:22;100234.00;;;21.04;45.84
60258;BME280;46115;44.484;11.314;2023-08-08T22:26:24;100234.31;;;21.01;45.84
60258;BME280;46115;44.484;11.314;2023-08-08T22:30:27;100227.69;;;20.95;45.70
60258;BME280;46115;44.484;11.314;2023-08-08T22:34:29;100223.69;;;20.99;45.44
60258;BME280;46115;44.484;11.314;2023-08-08T22:38:33;100212.63;;;20.75;45.73
60258;BME280;46115;44.484;11.314;2023-08-08T22:42:36;100222.09;;;21.06;45.35
60258;BME280;46115;44.484;11.314;2023-08-08T22:46:38;100219.03;;;21.01;45.18
60258;BME280;46115;44.484;11.314;2023-08-08T22:50:41;100215.94;;;20.96;44.97
60258;BME280;46115;44.484;11.314;2023-08-08T22:54:48;100211.06;;;20.82;44.73
60258;BME280;46115;44.484;11.314;2023-08-08T22:58:50;100209.78;;;20.76;44.14
60258;BME280;46115;44.484;11.314;2023-08-08T23:02:53;100206.94;;;20.88;44.08
60258;BME280;46115;44.484;11.314;2023-08-08T23:06:55;100201.47;;;20.70;44.86
60258;BME280;46115;44.484;11.314;2023-08-08T23:10:59;100206.78;;;20.79;44.87
60258;BME280;46115;44.484;11.314;2023-08-08T23:15:02;100201.28;;;20.81;45.23
60258;BME280;46115;44.484;11.314;2023-08-08T23:19:04;100202.78;;;20.46;45.73
60258;BME280;46115;44.484;11.314;2023-08-08T23:23:07;100174.81;;;20.39;46.87
60258;BME280;46115;44.484;11.314;2023-08-08T23:27:11;100194.03;;;20.54;45.87
60258;BME280;46115;44.484;11.314;2023-08-08T23:31:13;100204.03;;;20.62;45.50
60258;BME280;46115;44.484;11.314;2023-08-08T23:35:21;100200.41;;;20.34;45.97
60258;BME280;46115;44.484;11.314;2023-08-08T23:39:23;100206.72;;;20.62;45.02
60258;BME280;46115;44.484;11.314;2023-08-08T23:43:27;100203.44;;;20.68;45.10
60258;BME280;46115;44.484;11.314;2023-08-08T23:47:30;100196.88;;;20.23;45.85